Time;durP1;ratioP1;P1;durP2;ratioP2;P2;SDS_P1;SDS_P2;PMS_P1;PMS_P2;Temp;Humidity;BMP_temperature;BMP_pressure;BME280_temperature;BME280_humidity;BME280_pressure;Samples;Min_cycle;Max_cycle;Signal;HPM_P1;HPM_P2
2023/12/25 08:16:49;;;;;;;;;0.00;0.00;;;;;21.62;48.28;101265.28;5622391;23;46666;-75
2023/12/25 08:19:14;;;;;;;;;0.00;0.00;;;;;21.64;48.17;101278.38;4935579;28;45698;-78
2023/12/25 08:21:40;;;;;;;;;0.00;0.00;;;;;21.63;48.09;101277.53;4934500;28;57731;-77
2023/12/25 08:24:06;;;;;;;;;0.00;0.00;;;;;21.66;48.43;101275.53;4919720;28;47167;-80
2023/12/25 08:26:33;;;;;;;;;0.00;0.00;;;;;21.66;48.07;101281.69;4937053;28;45292;-78
2023/12/25 08:28:58;;;;;;;;;0.00;0.00;;;;;21.68;48.50;101286.78;4935073;28;45425;-78
2023/12/25 08:31:23;;;;;;;;;0.33;0.00;;;;;21.69;48.09;101288.47;4934696;28;48753;-78
2023/12/25 08:33:49;;;;;;;;;0.00;0.00;;;;;21.67;48.34;101286.00;4923677;28;45216;-79
2023/12/25 08:36:14;;;;;;;;;0.33;0.00;;;;;21.71;48.25;101284.66;4928973;28;52074;-78
2023/12/25 08:38:39;;;;;;;;;1.00;1.00;;;;;21.65;48.57;101277.38;4925628;28;45287;-80
2023/12/25 08:41:05;;;;;;;;;0.33;0.33;;;;;21.67;48.85;101285.16;4920627;28;48603;-77
2023/12/25 08:43:30;;;;;;;;;0.00;0.00;;;;;21.66;48.79;101276.38;4920471;28;57172;-78
2023/12/25 08:45:57;;;;;;;;;0.00;0.00;;;;;21.72;49.20;101291.63;4918615;28;45413;-78
2023/12/25 08:48:22;;;;;;;;;0.00;0.00;;;;;21.73;48.71;101289.78;4918369;28;45282;-79
2023/12/25 08:50:47;;;;;;;;;0.00;0.00;;;;;21.72;49.41;101299.56;4918465;28;45339;-79
2023/12/25 08:53:13;;;;;;;;;0.00;0.00;;;;;21.67;48.95;101290.47;4931144;28;51123;-80
2023/12/25 08:55:39;;;;;;;;;0.00;0.00;;;;;21.71;49.55;101310.31;4931263;28;45691;-79
2023/12/25 08:58:04;;;;;;;;;0.67;0.00;;;;;21.71;49.18;101289.94;4931537;28;45372;-80
2023/12/25 09:00:30;;;;;;;;;0.67;0.67;;;;;21.77;49.75;101306.16;4924112;28;45363;-80
2023/12/25 09:02:56;;;;;;;;;0.33;0.33;;;;;21.78;49.34;101302.53;4917855;28;47120;-78
2023/12/25 09:05:21;;;;;;;;;3.67;0.00;;;;;21.73;49.79;101305.66;4918003;28;55317;-78
2023/12/25 09:07:46;;;;;;;;;0.33;0.00;;;;;21.74;50.18;101296.72;4918582;28;45267;-81
2023/12/25 09:10:12;;;;;;;;;0.00;0.00;;;;;21.80;50.10;101300.53;4923070;28;45332;-80
2023/12/25 09:12:38;;;;;;;;;0.00;0.00;;;;;21.76;50.12;101291.25;4924956;28;45930;-80
2023/12/25 09:15:04;;;;;;;;;0.00;0.00;;;;;21.80;50.06;101293.44;4934113;28;45398;-79
2023/12/25 09:17:30;;;;;;;;;0.00;0.00;;;;;21.69;49.86;101281.34;4933162;28;47163;-79
2023/12/25 09:19:55;;;;;;;;;1.00;1.00;;;;;21.85;50.49;101303.50;4939331;28;45601;-80
2023/12/25 09:22:23;;;;;;;;;0.00;0.00;;;;;21.93;50.23;101315.94;4940561;28;46102;-81
2023/12/25 09:24:50;;;;;;;;;0.33;0.33;;;;;21.94;50.54;101314.94;4940658;28;45366;-82
2023/12/25 09:27:15;;;;;;;;;0.67;0.67;;;;;21.96;51.00;101327.03;4921738;28;45381;-81
2023/12/25 09:29:41;;;;;;;;;0.00;0.00;;;;;21.99;50.84;101325.84;4920201;28;45503;-81
2023/12/25 09:32:06;;;;;;;;;0.00;0.00;;;;;22.01;50.95;101325.72;4920602;28;46363;-81
2023/12/25 09:34:32;;;;;;;;;3.00;3.00;;;;;21.92;51.09;101304.53;4921251;28;45321;-76
2023/12/25 09:36:58;;;;;;;;;4.33;4.00;;;;;22.04;50.93;101322.72;4921043;28;45370;-75
2023/12/25 09:39:23;;;;;;;;;4.00;3.00;;;;;22.02;50.42;101322.03;4921148;28;45480;-76
2023/12/25 09:41:49;;;;;;;;;1.67;1.67;;;;;22.01;50.12;101328.34;4920751;28;45383;-76
2023/12/25 09:44:14;;;;;;;;;2.00;2.00;;;;;21.99;49.78;101323.22;4921223;28;45383;-74
2023/12/25 09:46:40;;;;;;;;;2.00;2.00;;;;;21.99;50.07;101330.34;4920982;28;45241;-76
2023/12/25 09:49:05;;;;;;;;;1.00;1.00;;;;;21.99;49.65;101333.81;4920851;28;45533;-75
2023/12/25 09:51:34;;;;;;;;;1.00;1.00;;;;;22.01;49.80;101331.84;4920991;28;45306;-74
2023/12/25 09:54:00;;;;;;;;;3.67;2.00;;;;;22.05;49.93;101342.91;4920730;28;45446;-75
2023/12/25 09:56:26;;;;;;;;;4.33;1.00;;;;;22.09;50.37;101336.31;4920790;28;45285;-75
2023/12/25 09:58:53;;;;;;;;;3.00;1.67;;;;;22.14;50.16;101333.97;4920935;28;45320;-75
2023/12/25 10:01:20;;;;;;;;;1.00;1.00;;;;;22.09;50.29;101323.06;4920433;28;46338;-76
2023/12/25 10:03:46;;;;;;;;;0.67;0.67;;;;;22.23;50.75;101344.53;4920647;28;45381;-78
2023/12/25 10:06:12;;;;;;;;;0.00;0.00;;;;;22.20;49.36;101337.75;4920782;28;45463;-74
2023/12/25 10:08:38;;;;;;;;;0.00;0.00;;;;;22.22;49.10;101340.25;4921112;28;45399;-79
2023/12/25 10:11:04;;;;;;;;;0.00;0.00;;;;;22.19;50.07;101346.72;4920577;28;47244;-79
2023/12/25 10:13:31;;;;;;;;;0.00;0.00;;;;;22.18;50.13;101348.53;4920643;28;45392;-79
2023/12/25 10:15:56;;;;;;;;;0.00;0.00;;;;;22.05;49.33;101335.78;4920688;28;45394;-82
2023/12/25 10:18:22;;;;;;;;;0.00;0.00;;;;;22.14;49.70;101349.03;4920411;28;57308;-82
2023/12/25 10:20:57;;;;;;;;;1.00;0.00;;;;;21.92;49.30;101315.13;4933847;28;45332;-83
2023/12/25 10:23:33;;;;;;;;;0.00;0.00;;;;;22.17;49.21;101325.66;4939596;28;45374;-85
2023/12/25 10:25:59;;;;;;;;;1.00;0.00;;;;;22.47;48.80;101359.56;4935641;28;45375;-77
2023/12/25 10:28:29;;;;;;;;;1.00;0.00;;;;;22.52;48.63;101359.03;4921335;28;45563;-76
2023/12/25 10:31:05;;;;;;;;;2.00;0.00;;;;;22.24;48.22;101312.56;4925673;28;47207;-77
2023/12/25 10:33:31;;;;;;;;;0.00;0.00;;;;;22.26;48.80;101307.09;4936559;28;45316;-78
2023/12/25 10:36:04;;;;;;;;;1.00;0.00;;;;;22.38;48.47;101324.28;4932695;28;45383;-77
2023/12/25 10:38:32;;;;;;;;;0.00;0.00;;;;;22.59;48.09;101353.84;4936779;28;45512;-75
2023/12/25 10:40:57;;;;;;;;;0.00;0.00;;;;;22.61;48.08;101350.03;4938840;28;45426;-80
2023/12/25 10:43:25;;;;;;;;;0.00;0.00;;;;;22.44;48.20;101321.94;4939187;28;45379;-78
2023/12/25 10:45:55;;;;;;;;;0.33;0.00;;;;;22.53;48.40;101320.94;4925055;28;45462;-76
2023/12/25 10:48:23;;;;;;;;;1.00;0.00;;;;;22.59;47.67;101335.31;4926752;28;45403;-76
2023/12/25 10:50:52;;;;;;;;;1.00;0.00;;;;;22.57;46.83;101335.47;4939746;28;46381;-76
2023/12/25 10:53:18;;;;;;;;;0.00;0.00;;;;;22.44;46.61;101320.13;4938905;28;45445;-76
2023/12/25 10:55:46;;;;;;;;;0.00;0.00;;;;;22.46;46.43;101323.41;4939051;28;45361;-76
2023/12/25 10:58:12;;;;;;;;;0.00;0.00;;;;;22.49;46.14;101324.91;4938933;28;45544;-76
2023/12/25 11:00:49;;;;;;;;;0.00;0.00;;;;;22.36;46.25;101306.88;4938875;28;46090;-76
2023/12/25 11:03:15;;;;;;;;;0.00;0.00;;;;;22.35;45.20;101311.34;4927384;28;45325;-75
2023/12/25 11:05:41;;;;;;;;;0.00;0.00;;;;;22.30;45.88;101308.41;4947950;28;45481;-76
2023/12/25 11:08:07;;;;;;;;;0.00;0.00;;;;;22.28;45.71;101315.69;4932647;28;45511;-76
2023/12/25 11:10:33;;;;;;;;;1.00;0.00;;;;;22.37;45.97;101319.16;4929863;28;45819;-76
2023/12/25 11:12:58;;;;;;;;;0.00;0.00;;;;;22.39;45.80;101322.44;4938368;28;45414;-77
2023/12/25 11:15:24;;;;;;;;;0.00;0.00;;;;;22.34;45.87;101307.06;4938296;28;45539;-79
2023/12/25 11:17:50;;;;;;;;;0.33;0.33;;;;;22.32;46.33;101300.28;4930806;28;45303;-81
2023/12/25 11:20:16;;;;;;;;;0.00;0.00;;;;;22.38;46.47;101304.88;4932955;28;45453;-78
2023/12/25 11:22:41;;;;;;;;;3.00;0.00;;;;;22.32;46.35;101292.34;4938509;28;45411;-76
2023/12/25 11:25:18;;;;;;;;;0.67;0.67;;;;;22.39;46.65;101291.47;4938435;28;45296;-79
2023/12/25 11:27:51;;;;;;;;;1.00;1.00;;;;;22.48;46.21;101305.50;4937958;28;45405;-80
2023/12/25 11:30:18;;;;;;;;;1.00;0.00;;;;;22.49;46.45;101304.53;4934505;28;47376;-80
2023/12/25 11:32:48;;;;;;;;;1.00;0.00;;;;;22.46;46.51;101291.59;4941124;28;45453;-86
2023/12/25 11:35:14;;;;;;;;;2.00;0.67;;;;;22.37;46.67;101271.44;4932865;28;45716;-84
2023/12/25 11:37:39;;;;;;;;;3.33;1.00;;;;;22.54;47.25;101292.56;4927107;28;45427;-78
2023/12/25 11:40:05;;;;;;;;;3.00;1.00;;;;;22.58;47.20;101286.75;4935112;28;45399;-82
2023/12/25 11:42:32;;;;;;;;;2.00;0.00;;;;;22.72;47.27;101301.13;4936750;28;45615;-77
2023/12/25 11:45:00;;;;;;;;;0.00;0.00;;;;;22.77;47.55;101294.50;4934341;28;45244;-78
2023/12/25 11:47:28;;;;;;;;;0.00;0.00;;;;;22.76;47.69;101288.34;4937789;28;46606;-87
2023/12/25 11:49:54;;;;;;;;;1.00;1.00;;;;;22.85;48.20;101289.94;4950599;28;46333;-77
2023/12/25 11:52:55;;;;;;;;;0.33;0.00;;;;;22.89;47.96;101290.44;4938874;28;45448;-81
2023/12/25 11:55:22;;;;;;;;;0.00;0.00;;;;;22.92;48.17;101282.13;4933492;28;45291;-82
2023/12/25 11:57:48;;;;;;;;;1.33;1.33;;;;;22.91;48.67;101275.16;4930088;28;45501;-82
2023/12/25 12:00:17;;;;;;;;;0.33;0.00;;;;;22.92;48.93;101270.69;4937485;28;46417;-75
2023/12/25 12:02:43;;;;;;;;;0.00;0.00;;;;;23.01;48.38;101276.75;4947768;28;45394;-75
2023/12/25 12:05:09;;;;;;;;;0.67;0.00;;;;;22.88;48.83;101256.94;4938939;28;45433;-76
2023/12/25 12:07:34;;;;;;;;;1.00;0.00;;;;;23.02;48.92;101275.75;4936917;28;45363;-77
2023/12/25 12:10:00;;;;;;;;;0.00;0.00;;;;;23.11;49.10;101279.19;4937587;28;45496;-75
2023/12/25 12:12:25;;;;;;;;;0.00;0.00;;;;;23.05;48.94;101262.97;4937239;28;55358;-78
2023/12/25 12:14:51;;;;;;;;;2.00;0.33;;;;;23.17;49.10;101267.84;4937765;28;45708;-78
2023/12/25 12:17:17;;;;;;;;;0.00;0.00;;;;;23.26;48.69;101268.63;4940425;28;45534;-80
2023/12/25 12:19:43;;;;;;;;;1.33;0.00;;;;;23.20;49.23;101264.00;4940485;28;45939;-79
2023/12/25 12:22:08;;;;;;;;;0.00;0.00;;;;;23.24;49.56;101258.16;4940319;28;45496;-83
2023/12/25 12:24:34;;;;;;;;;0.67;0.00;;;;;23.34;49.70;101262.41;4938173;28;45495;-80
2023/12/25 12:27:08;;;;;;;;;2.00;0.00;;;;;23.38;49.60;101261.03;4937441;28;45374;-79
2023/12/25 12:29:59;;;;;;;;;0.67;0.67;;;;;23.40;50.19;101262.53;4931735;28;47098;-83
2023/12/25 12:32:25;;;;;;;;;3.00;1.00;;;;;23.25;50.09;101238.59;4934371;28;45533;-81
2023/12/25 12:34:50;;;;;;;;;2.00;0.00;;;;;23.27;50.27;101230.44;4937241;28;45444;-78
2023/12/25 12:37:16;;;;;;;;;0.67;0.33;;;;;23.50;49.66;101261.47;4924211;28;45447;-79
2023/12/25 12:39:42;;;;;;;;;1.00;0.00;;;;;23.23;51.02;101205.25;4937022;28;45906;-78
2023/12/25 12:42:12;;;;;;;;;0.00;0.00;;;;;23.46;49.96;101238.91;4937038;28;45569;-80
2023/12/25 12:44:37;;;;;;;;;0.33;0.33;;;;;23.64;50.59;101246.56;4929868;28;45375;-76
2023/12/25 12:47:06;;;;;;;;;2.33;1.00;;;;;23.50;50.74;101222.44;4936960;28;45312;-78
2023/12/25 12:49:32;;;;;;;;;0.00;0.00;;;;;23.54;50.58;101222.94;4931546;28;46560;-78
2023/12/25 12:51:57;;;;;;;;;1.00;0.00;;;;;23.72;48.99;101251.81;4933729;28;45374;-76
2023/12/25 12:54:22;;;;;;;;;0.00;0.00;;;;;23.40;48.67;101200.63;4937607;28;45413;-83
2023/12/25 12:56:48;;;;;;;;;0.00;0.00;;;;;23.70;48.55;101247.69;4937295;28;45510;-78
2023/12/25 12:59:13;;;;;;;;;0.00;0.00;;;;;23.52;48.96;101227.59;4937472;28;47053;-77
2023/12/25 13:01:39;;;;;;;;;0.00;0.00;;;;;23.61;48.66;101244.25;4936906;28;45465;-76
2023/12/25 13:04:04;;;;;;;;;0.00;0.00;;;;;23.62;48.58;101232.66;4937259;28;45379;-78
2023/12/25 13:06:29;;;;;;;;;1.00;0.00;;;;;23.32;48.38;101204.16;4937130;28;45338;-79
2023/12/25 13:08:55;;;;;;;;;2.33;0.00;;;;;23.65;48.57;101255.38;4937374;28;46381;-80
2023/12/25 13:11:25;;;;;;;;;0.33;0.33;;;;;23.62;48.16;101249.41;4937296;28;45236;-78
2023/12/25 13:13:51;;;;;;;;;0.00;0.00;;;;;23.61;48.46;101250.41;4935382;28;45423;-75
2023/12/25 13:16:18;;;;;;;;;0.00;0.00;;;;;23.47;48.15;101228.09;4925374;28;45493;-74
2023/12/25 13:18:45;;;;;;;;;0.67;0.00;;;;;23.40;48.15;101200.63;4944998;28;45493;-74
2023/12/25 13:21:11;;;;;;;;;0.00;0.00;;;;;23.55;48.78;101234.38;4936468;28;45303;-77
2023/12/25 13:23:36;;;;;;;;;0.00;0.00;;;;;23.58;48.54;101242.78;4944007;28;45346;-77
2023/12/25 13:26:01;;;;;;;;;0.00;0.00;;;;;23.51;48.42;101228.59;4936895;28;45607;-81
2023/12/25 13:28:27;;;;;;;;;1.67;0.00;;;;;23.39;48.14;101209.59;4937023;28;45574;-78
2023/12/25 13:30:52;;;;;;;;;1.67;1.00;;;;;23.56;48.82;101234.19;4937019;28;45228;-75
2023/12/25 13:33:20;;;;;;;;;4.00;1.00;;;;;23.50;48.58;101221.63;4937395;28;45512;-75
2023/12/25 13:35:45;;;;;;;;;0.00;0.00;;;;;23.52;48.42;101236.38;4946111;28;45329;-74
2023/12/25 13:38:10;;;;;;;;;0.00;0.00;;;;;23.31;48.54;101188.44;4926698;28;46467;-75
2023/12/25 13:40:36;;;;;;;;;0.00;0.00;;;;;23.46;48.64;101220.31;4936622;28;45450;-75
2023/12/25 13:43:02;;;;;;;;;0.00;0.00;;;;;23.22;48.80;101177.88;4937031;28;45381;-76
2023/12/25 13:45:27;;;;;;;;;1.00;0.00;;;;;23.49;48.78;101219.97;4936596;28;45430;-74
2023/12/25 13:47:52;;;;;;;;;1.00;1.00;;;;;23.47;48.57;101216.66;4936871;28;46755;-74
2023/12/25 13:50:18;;;;;;;;;0.00;0.00;;;;;23.47;48.57;101221.97;4934682;28;45697;-75
2023/12/25 13:52:44;;;;;;;;;0.00;0.00;;;;;23.32;49.25;101193.56;4936656;28;45446;-74
2023/12/25 13:55:09;;;;;;;;;0.00;0.00;;;;;23.39;49.13;101201.63;4936322;28;45665;-75
2023/12/25 13:57:34;;;;;;;;;0.00;0.00;;;;;23.34;49.09;101186.22;4936765;28;46163;-73
2023/12/25 14:00:00;;;;;;;;;1.00;0.00;;;;;23.37;48.60;101191.19;4936303;28;45465;-76
2023/12/25 14:02:25;;;;;;;;;1.00;1.00;;;;;23.40;48.62;101193.47;4937243;28;45418;-78
2023/12/25 14:04:51;;;;;;;;;0.00;0.00;;;;;23.41;48.99;101202.28;4940017;28;45462;-79
2023/12/25 14:07:17;;;;;;;;;0.00;0.00;;;;;23.40;49.01;101193.47;4939545;28;46670;-79
2023/12/25 14:09:44;;;;;;;;;0.67;0.00;;;;;23.42;49.07;101206.56;4950448;28;45402;-79
2023/12/25 14:12:10;;;;;;;;;0.00;0.00;;;;;23.14;48.97;101168.16;4940053;28;45461;-78
2023/12/25 14:14:35;;;;;;;;;0.00;0.00;;;;;23.40;49.20;101197.97;4939599;28;45697;-77
2023/12/25 14:17:00;;;;;;;;;0.00;0.00;;;;;23.40;49.09;101204.09;4939711;28;45768;-76
2023/12/25 14:19:26;;;;;;;;;1.00;0.33;;;;;23.30;48.60;101182.28;4935741;28;45472;-75
2023/12/25 14:21:52;;;;;;;;;0.00;0.00;;;;;23.44;48.91;101206.41;4941733;28;45485;-74
2023/12/25 14:24:17;;;;;;;;;0.33;0.33;;;;;23.44;49.12;101196.59;4942350;28;45439;-74
2023/12/25 14:26:42;;;;;;;;;0.00;0.00;;;;;23.33;48.66;101179.28;4939052;28;46092;-74
2023/12/25 14:29:07;;;;;;;;;2.00;1.00;;;;;23.29;48.67;101172.66;4939101;28;45452;-74
2023/12/25 14:31:33;;;;;;;;;4.33;4.33;;;;;23.27;48.85;101166.72;4939439;28;45508;-74
2023/12/25 14:33:58;;;;;;;;;2.00;2.00;;;;;23.45;48.88;101194.75;4938907;28;45408;-74
2023/12/25 14:36:26;;;;;;;;;2.00;2.00;;;;;23.36;49.03;101183.41;4930910;28;45398;-74
2023/12/25 14:38:51;;;;;;;;;2.00;2.00;;;;;23.29;49.20;101176.16;4934354;28;45263;-78
2023/12/25 14:41:17;;;;;;;;;2.00;2.00;;;;;23.24;49.15;101170.56;4939562;28;45207;-76
2023/12/25 14:43:44;;;;;;;;;1.00;1.00;;;;;23.39;49.29;101191.81;4939305;28;45334;-73
2023/12/25 14:46:10;;;;;;;;;0.00;0.00;;;;;23.37;49.21;101185.03;4938985;28;46980;-73
2023/12/25 14:48:35;;;;;;;;;1.67;1.67;;;;;23.38;49.43;101184.88;4938849;28;45513;-73
2023/12/25 14:51:00;;;;;;;;;3.67;1.00;;;;;23.31;49.35;101165.38;4938951;28;45412;-73
2023/12/25 14:53:26;;;;;;;;;3.00;1.00;;;;;23.47;49.33;101196.22;4938819;28;45589;-74
2023/12/25 14:55:51;;;;;;;;;1.00;1.00;;;;;23.49;49.12;101196.91;4939397;28;46208;-76
2023/12/25 14:58:16;;;;;;;;;0.33;0.33;;;;;23.49;48.90;101204.88;4938926;28;45339;-75
2023/12/25 15:00:42;;;;;;;;;2.33;1.00;;;;;23.47;48.96;101198.88;4939320;28;45485;-74
2023/12/25 15:03:07;;;;;;;;;0.33;0.00;;;;;23.47;48.91;101204.19;4939040;28;45335;-80
2023/12/25 15:05:32;;;;;;;;;2.00;0.33;;;;;23.43;48.59;101200.25;4938283;28;46433;-74
2023/12/25 15:07:59;;;;;;;;;1.67;1.00;;;;;23.38;48.61;101187.53;4938488;28;45385;-75
2023/12/25 15:10:25;;;;;;;;;1.00;0.33;;;;;23.44;47.78;101206.41;4938985;28;45406;-74
2023/12/25 15:12:50;;;;;;;;;2.00;1.00;;;;;23.39;47.76;101201.63;4938650;28;45447;-76
2023/12/25 15:15:18;;;;;;;;;1.00;1.00;;;;;23.27;48.22;101193.28;4937341;28;46216;-74
2023/12/25 15:17:43;;;;;;;;;2.33;1.00;;;;;23.16;48.10;101182.06;4938027;28;45502;-74
2023/12/25 15:20:09;;;;;;;;;3.33;0.67;;;;;23.34;48.19;101214.63;4938221;28;45264;-75
2023/12/25 15:22:34;;;;;;;;;2.00;1.00;;;;;23.27;48.78;101198.56;4945846;28;45402;-75
2023/12/25 15:24:59;;;;;;;;;0.00;0.00;;;;;23.33;48.46;101207.66;4938439;28;45239;-75
2023/12/25 15:27:25;;;;;;;;;2.00;1.00;;;;;23.18;48.71;101171.31;4939432;28;45399;-75
2023/12/25 15:29:50;;;;;;;;;1.00;1.00;;;;;23.34;48.57;101215.44;4948816;28;45416;-74
2023/12/25 15:32:16;;;;;;;;;0.00;0.00;;;;;23.32;48.28;101216.63;4938555;28;45505;-74
2023/12/25 15:34:41;;;;;;;;;3.00;1.00;;;;;23.31;48.16;101213.16;4937837;28;45433;-74
2023/12/25 15:37:07;;;;;;;;;3.33;1.00;;;;;23.31;48.43;101212.31;4924695;28;45487;-74
2023/12/25 15:39:33;;;;;;;;;0.67;0.67;;;;;23.28;48.78;101206.38;4938502;28;45327;-75
2023/12/25 15:41:58;;;;;;;;;3.33;0.33;;;;;23.29;48.53;101212.50;4938246;28;45476;-73
2023/12/25 15:44:23;;;;;;;;;5.00;4.00;;;;;23.27;48.39;101209.19;4938180;28;46033;-73
2023/12/25 15:46:49;;;;;;;;;6.00;3.00;;;;;23.22;49.05;101195.63;4938077;28;45435;-73
2023/12/25 15:49:14;;;;;;;;;6.00;4.00;;;;;23.19;48.64;101191.50;4938279;28;45334;-75
2023/12/25 15:51:40;;;;;;;;;3.00;3.00;;;;;23.26;48.54;101200.41;4938299;28;45562;-72
2023/12/25 15:54:05;;;;;;;;;4.00;1.33;;;;;23.22;48.57;101190.31;4938338;28;46282;-75
2023/12/25 15:56:30;;;;;;;;;5.00;3.00;;;;;23.22;48.67;101195.63;4935210;28;45365;-81
2023/12/25 15:58:56;;;;;;;;;1.67;1.33;;;;;23.28;48.51;101198.41;4938608;28;45339;-76
2023/12/25 16:01:22;;;;;;;;;3.67;1.67;;;;;23.22;48.57;101192.97;4937865;28;45653;-75
2023/12/25 16:03:50;;;;;;;;;5.33;1.67;;;;;23.16;48.76;101186.59;4937748;28;46082;-74
2023/12/25 16:06:15;;;;;;;;;3.00;1.00;;;;;23.27;48.69;101201.22;4937516;28;45244;-75
2023/12/25 16:08:41;;;;;;;;;3.33;2.67;;;;;23.28;48.29;101206.38;4938062;28;45338;-75
2023/12/25 16:11:07;;;;;;;;;2.00;2.00;;;;;23.27;48.34;101183.47;4938045;28;45517;-75
2023/12/25 16:13:32;;;;;;;;;2.67;2.33;;;;;23.23;48.60;101202.59;4938156;28;45367;-75
2023/12/25 16:15:58;;;;;;;;;3.00;1.00;;;;;23.02;48.32;101170.44;4937753;28;45343;-75
2023/12/25 16:18:23;;;;;;;;;2.67;1.33;;;;;23.26;48.47;101211.03;4937741;28;45581;-75
2023/12/25 16:20:48;;;;;;;;;7.33;2.33;;;;;23.25;48.55;101204.06;4937974;28;45398;-75
2023/12/25 16:23:14;;;;;;;;;5.33;3.00;;;;;23.25;48.48;101208.56;4942773;28;45474;-74
2023/12/25 16:25:39;;;;;;;;;3.00;3.00;;;;;23.07;48.74;101180.50;4936808;28;45339;-74
2023/12/25 16:28:07;;;;;;;;;3.00;1.00;;;;;23.22;48.83;101206.25;4938274;28;45482;-75
2023/12/25 16:30:33;;;;;;;;;2.00;2.00;;;;;23.22;48.56;101215.06;4935283;28;45508;-76
2023/12/25 16:32:59;;;;;;;;;3.00;2.00;;;;;23.15;49.08;101200.84;4937169;28;47238;-79
2023/12/25 16:35:24;;;;;;;;;5.00;1.00;;;;;22.94;48.57;101167.84;4937643;28;45338;-77
2023/12/25 16:37:49;;;;;;;;;2.67;1.33;;;;;23.22;48.76;101214.22;4925490;28;46540;-80
2023/12/25 16:40:15;;;;;;;;;3.00;2.00;;;;;23.01;48.80;101178.56;4935435;28;45486;-79
2023/12/25 16:42:40;;;;;;;;;5.33;2.00;;;;;23.20;48.90;101200.31;4936672;28;46176;-80
2023/12/25 16:45:06;;;;;;;;;3.00;1.00;;;;;22.92;48.92;101162.72;4937568;28;45727;-80
2023/12/25 16:47:31;;;;;;;;;5.00;2.00;;;;;23.07;48.95;101183.16;4937294;28;45389;-79
2023/12/25 16:49:57;;;;;;;;;3.00;2.00;;;;;23.16;49.13;101192.69;4937351;28;45613;-79
2023/12/25 16:52:22;;;;;;;;;4.00;4.00;;;;;23.25;49.33;101206.72;4923991;28;47200;-79
2023/12/25 16:54:47;;;;;;;;;1.50;1.50;;;;;23.18;48.84;101195.19;4934762;28;45461;-80
2023/12/25 16:57:14;;;;;;;;;2.00;0.00;;;;;23.10;49.20;101182.81;4937508;28;45889;-81
2023/12/25 16:59:42;;;;;;;;;2.33;2.33;;;;;23.26;49.02;101208.38;4940213;28;45390;-78
2023/12/25 17:02:11;;;;;;;;;5.00;2.25;;;;;23.25;49.49;101204.06;4936413;28;45691;-78
2023/12/25 17:04:36;;;;;;;;;2.00;1.33;;;;;23.27;49.22;101201.22;4937321;28;45467;-78
2023/12/25 17:07:01;;;;;;;;;2.00;2.00;;;;;22.73;49.51;101113.63;4925927;28;45431;-78
2023/12/25 17:09:27;;;;;;;;;3.00;2.00;;;;;22.85;48.93;101133.41;4937306;28;45499;-78
2023/12/25 17:11:52;;;;;;;;;4.00;2.33;;;;;22.98;49.47;101158.50;4937134;28;46755;-80
2023/12/25 17:14:17;;;;;;;;;2.67;2.67;;;;;22.93;49.44;101152.91;4937137;28;45354;-79
2023/12/25 17:16:43;;;;;;;;;1.67;1.67;;;;;22.51;49.21;101077.13;4943007;28;45472;-79
2023/12/25 17:19:08;;;;;;;;;1.67;1.67;;;;;23.27;49.40;101198.56;4936859;28;45451;-79
2023/12/25 17:21:34;;;;;;;;;6.00;3.00;;;;;23.27;49.80;101210.03;4936551;28;46341;-79
2023/12/25 17:24:00;;;;;;;;;3.67;2.67;;;;;22.59;49.22;101092.16;4942104;28;45465;-78
2023/12/25 17:26:25;;;;;;;;;2.00;2.00;;;;;22.83;49.75;101139.91;4940702;28;45434;-80
2023/12/25 17:28:53;;;;;;;;;2.67;2.67;;;;;22.47;49.35;101075.84;4934904;28;45594;-78
2023/12/25 17:31:19;;;;;;;;;2.00;1.67;;;;;22.59;49.62;101096.63;4937386;28;46258;-78
2023/12/25 17:33:44;;;;;;;;;2.67;1.00;;;;;22.63;49.95;101108.53;4936691;28;45263;-79
2023/12/25 17:36:10;;;;;;;;;5.00;2.33;;;;;22.93;49.51;101158.22;4938275;28;46367;-79
2023/12/25 17:38:35;;;;;;;;;2.67;2.67;;;;;22.58;49.42;101095.81;4920344;28;45315;-79
2023/12/25 17:41:01;;;;;;;;;2.00;2.00;;;;;23.32;49.69;101208.66;4938698;28;46940;-78
2023/12/25 17:43:29;;;;;;;;;3.00;2.33;;;;;23.15;50.05;101185.75;4926421;28;45328;-79
2023/12/25 17:45:58;;;;;;;;;3.00;1.00;;;;;23.25;49.85;101197.94;4935712;28;45546;-84
2023/12/25 17:48:23;;;;;;;;;3.33;2.00;;;;;22.99;49.57;101160.19;4942446;28;45366;-74
2023/12/25 17:50:49;;;;;;;;;3.67;1.00;;;;;23.15;49.51;101176.97;4942137;28;46342;-77
2023/12/25 17:53:15;;;;;;;;;3.00;2.00;;;;;23.24;49.69;101198.94;4940477;28;45317;-75
2023/12/25 17:55:41;;;;;;;;;9.00;3.00;;;;;23.22;49.64;101188.50;4939752;28;45362;-76
2023/12/25 17:58:07;;;;;;;;;4.67;3.00;;;;;22.73;49.73;101119.78;4939905;28;46511;-74
2023/12/25 18:00:33;;;;;;;;;3.00;2.67;;;;;22.48;49.70;101081.97;4939304;28;46029;-77
2023/12/25 18:02:58;;;;;;;;;1.33;1.33;;;;;22.52;49.49;101085.91;4939837;28;45444;-76
2023/12/25 18:05:23;;;;;;;;;2.33;2.33;;;;;23.26;49.77;101207.56;4932382;28;45255;-75
2023/12/25 18:07:49;;;;;;;;;3.00;2.67;;;;;23.31;50.23;101214.97;4936106;28;45425;-75
2023/12/25 18:10:15;;;;;;;;;3.33;3.00;;;;;22.85;50.11;101146.69;4939142;28;45705;-77
2023/12/25 18:12:41;;;;;;;;;4.67;1.67;;;;;22.88;49.92;101147.31;4939814;28;45366;-78
2023/12/25 18:15:08;;;;;;;;;6.33;2.00;;;;;22.75;50.04;101130.19;4940272;28;45311;-81
2023/12/25 18:17:33;;;;;;;;;5.33;2.00;;;;;23.16;49.81;101199.84;4946251;28;45457;-75
2023/12/25 18:19:58;;;;;;;;;2.33;2.00;;;;;23.20;49.91;101206.44;4932299;28;45315;-82
2023/12/25 18:22:24;;;;;;;;;3.33;1.33;;;;;23.31;50.05;101215.81;4945923;28;45682;-79
2023/12/25 18:24:49;;;;;;;;;3.00;3.00;;;;;23.16;50.62;101195.34;4943451;28;45697;-79
2023/12/25 18:27:14;;;;;;;;;5.00;2.00;;;;;23.21;50.54;101202.81;4939350;28;45339;-80
2023/12/25 18:29:40;;;;;;;;;4.67;2.00;;;;;23.29;50.94;101215.16;4939471;28;45530;-79
2023/12/25 18:32:05;;;;;;;;;1.00;1.00;;;;;23.34;50.50;101215.44;4939807;28;45958;-79
2023/12/25 18:34:30;;;;;;;;;4.67;1.33;;;;;23.36;50.63;101220.56;4945674;28;45414;-80
2023/12/25 18:36:56;;;;;;;;;1.00;1.00;;;;;23.36;50.74;101221.41;4927691;28;45477;-79
2023/12/25 18:39:22;;;;;;;;;3.33;3.00;;;;;23.29;50.71;101202.69;4938973;28;47287;-79
2023/12/25 18:41:47;;;;;;;;;2.33;2.33;;;;;23.34;51.03;101217.28;4939357;28;45385;-79
2023/12/25 18:44:12;;;;;;;;;5.00;2.00;;;;;23.33;51.06;101205.00;4941108;28;45460;-79
2023/12/25 18:46:38;;;;;;;;;2.00;2.00;;;;;23.37;51.26;101212.41;4939824;28;45493;-79
2023/12/25 18:49:03;;;;;;;;;2.00;1.33;;;;;23.38;51.23;101210.59;4938566;28;46354;-79
2023/12/25 18:51:29;;;;;;;;;3.00;2.00;;;;;23.29;51.30;101197.41;4939790;28;45453;-79
2023/12/25 18:53:54;;;;;;;;;4.33;1.67;;;;;23.36;50.95;101202.00;4939315;28;45534;-78
2023/12/25 18:56:20;;;;;;;;;5.33;2.00;;;;;23.31;51.27;101204.38;4939413;28;45357;-79
2023/12/25 18:58:46;;;;;;;;;5.33;2.33;;;;;23.36;51.11;101215.28;4941774;28;47142;-78
2023/12/25 19:01:11;;;;;;;;;5.00;1.00;;;;;23.40;51.02;101229.81;4945456;28;45391;-77
2023/12/25 19:03:38;;;;;;;;;2.33;1.00;;;;;23.17;50.91;101194.34;4939271;28;45747;-78
2023/12/25 19:06:04;;;;;;;;;3.00;1.00;;;;;23.28;51.13;101203.72;4939857;28;45264;-79
2023/12/25 19:08:29;;;;;;;;;3.00;2.67;;;;;23.41;50.92;101226.19;4937211;28;46271;-77
2023/12/25 19:10:55;;;;;;;;;2.00;0.67;;;;;23.22;50.10;101193.81;4937129;28;45388;-78
2023/12/25 19:13:20;;;;;;;;;3.67;2.00;;;;;23.38;50.44;101215.91;4940194;28;45430;-80
2023/12/25 19:15:45;;;;;;;;;2.00;2.00;;;;;23.27;50.24;101201.22;4939691;28;45526;-79
2023/12/25 19:18:11;;;;;;;;;3.00;1.67;;;;;23.26;50.58;101199.59;4938139;28;46234;-80
2023/12/25 19:20:36;;;;;;;;;3.00;0.00;;;;;23.35;50.67;101213.59;4938865;28;45466;-80
2023/12/25 19:23:04;;;;;;;;;4.00;1.33;;;;;23.39;50.93;101223.69;4940131;28;45630;-79
2023/12/25 19:25:30;;;;;;;;;2.33;0.67;;;;;23.31;50.51;101201.72;4937847;28;45434;-80
2023/12/25 19:27:55;;;;;;;;;4.67;1.00;;;;;23.07;50.61;101172.56;4927221;28;47404;-79
2023/12/25 19:30:20;;;;;;;;;4.00;1.00;;;;;23.31;50.65;101205.19;4939352;28;45367;-79
2023/12/25 19:32:46;;;;;;;;;3.67;1.67;;;;;23.22;50.60;101193.81;4939760;28;45488;-79
2023/12/25 19:35:12;;;;;;;;;2.33;1.00;;;;;23.39;50.65;101218.38;4938567;28;45452;-79